createdAt,value
2019-05-16T00:00:54.683Z,4.90
2019-05-16T00:01:54.676Z,5.10
2019-05-16T00:02:54.824Z,4.80
2019-05-16T00:03:54.650Z,5.00
2019-05-16T00:04:54.641Z,4.70
2019-05-16T00:05:54.791Z,4.90
2019-05-16T00:06:54.620Z,5.50
2019-05-16T00:07:54.615Z,5.30
2019-05-16T00:08:54.674Z,4.80
2019-05-16T00:09:54.593Z,5.10
2019-05-16T00:10:54.578Z,4.80
2019-05-16T00:11:54.558Z,4.90
2019-05-16T00:12:54.639Z,4.90
2019-05-16T00:13:54.538Z,5.20
2019-05-16T00:14:54.531Z,4.90
2019-05-16T00:15:54.517Z,5.60
2019-05-16T00:16:54.508Z,5.00
2019-05-16T00:17:54.498Z,4.80
2019-05-16T00:18:54.534Z,5.00
2019-05-16T00:19:54.489Z,5.10
2019-05-16T00:20:54.466Z,5.30
2019-05-16T00:21:54.456Z,5.40
2019-05-16T00:22:54.445Z,5.00
2019-05-16T00:23:54.435Z,5.50
2019-05-16T00:24:54.455Z,5.40
2019-05-16T00:25:54.413Z,5.50
2019-05-16T00:26:54.404Z,4.90
2019-05-16T00:27:54.426Z,5.50
2019-05-16T00:28:54.405Z,5.60
2019-05-16T00:29:54.402Z,5.80
2019-05-16T00:30:54.414Z,5.70
2019-05-16T00:31:54.348Z,5.30
2019-05-16T00:32:54.371Z,5.40
2019-05-16T00:33:54.343Z,5.50
2019-05-16T00:34:54.311Z,5.40
2019-05-16T00:36:02.527Z,5.20
2019-05-16T00:36:55.290Z,5.50
2019-05-16T00:37:54.308Z,5.20
2019-05-16T00:38:54.339Z,5.40
2019-05-16T00:39:54.270Z,5.60
2019-05-16T00:40:54.249Z,5.30
2019-05-16T00:41:54.256Z,5.40
2019-05-16T00:42:54.229Z,5.00
2019-05-16T00:43:54.249Z,4.90
2019-05-16T00:44:54.206Z,5.00
2019-05-16T00:45:54.198Z,4.80
2019-05-16T00:46:54.214Z,5.00
2019-05-16T00:47:54.171Z,4.80
2019-05-16T00:48:54.199Z,5.30
2019-05-16T00:49:54.147Z,5.30
2019-05-16T00:50:54.147Z,5.30
2019-05-16T00:51:54.126Z,5.30
2019-05-16T00:52:54.116Z,5.30
2019-05-16T00:53:54.162Z,5.20
2019-05-16T00:54:54.095Z,5.10
2019-05-16T00:55:54.100Z,5.20
2019-05-16T00:56:54.094Z,5.00
2019-05-16T00:57:54.066Z,5.00
2019-05-16T00:58:54.113Z,5.00
2019-05-16T00:59:54.042Z,5.30
2019-05-16T01:00:54.041Z,5.40
2019-05-16T01:01:54.024Z,5.30
2019-05-16T01:02:54.043Z,5.20
2019-05-16T01:03:54.011Z,5.40
2019-05-16T01:04:53.990Z,5.40
2019-05-16T01:05:54.030Z,5.60
2019-05-16T01:06:53.960Z,5.40
2019-05-16T01:07:53.967Z,5.50
2019-05-16T01:08:54.060Z,5.40
2019-05-16T01:09:53.940Z,5.30
2019-05-16T01:10:53.961Z,5.50
2019-05-16T01:11:53.923Z,6.00
2019-05-16T01:12:53.926Z,5.30
2019-05-16T01:13:53.889Z,5.20
2019-05-16T01:14:53.877Z,5.60
2019-05-16T01:15:53.921Z,5.50
2019-05-16T01:16:53.878Z,5.70
2019-05-16T01:17:53.855Z,4.50
2019-05-16T01:18:53.836Z,4.30
2019-05-16T01:19:53.848Z,4.40
2019-05-16T01:20:53.819Z,4.10
2019-05-16T01:21:53.846Z,4.20
2019-05-16T01:22:53.792Z,4.30
2019-05-16T01:23:53.782Z,4.40
2019-05-16T01:24:53.780Z,4.10
2019-05-16T01:25:53.794Z,4.10
2019-05-16T01:26:53.755Z,4.20
2019-05-16T01:27:53.793Z,4.00
2019-05-16T01:28:53.742Z,4.40
2019-05-16T01:29:53.721Z,4.40
2019-05-16T01:30:53.712Z,4.90
2019-05-16T01:31:53.692Z,4.20
2019-05-16T01:32:53.692Z,4.20
2019-05-16T01:33:53.712Z,4.40
2019-05-16T01:34:53.663Z,4.30
2019-05-16T01:35:53.681Z,4.40
2019-05-16T01:36:53.643Z,4.50
2019-05-16T01:37:53.639Z,4.10
2019-05-16T01:38:53.663Z,4.20
2019-05-16T01:39:53.615Z,4.60
2019-05-16T01:40:53.601Z,4.50
2019-05-16T01:41:53.591Z,4.50
2019-05-16T01:42:53.589Z,4.70
2019-05-16T01:43:53.608Z,4.50
2019-05-16T01:44:53.566Z,4.40
2019-05-16T01:45:53.552Z,4.50
2019-05-16T01:46:53.553Z,4.70
2019-05-16T01:47:53.528Z,4.80
2019-05-16T01:48:53.518Z,4.50
2019-05-16T01:49:53.536Z,4.40
2019-05-16T01:50:53.536Z,4.50
2019-05-16T01:51:53.486Z,4.40
2019-05-16T01:52:53.475Z,4.40
2019-05-16T01:53:53.455Z,4.40
2019-05-16T01:54:53.485Z,4.90
2019-05-16T01:55:53.460Z,4.50
2019-05-16T01:56:53.434Z,4.50
2019-05-16T01:57:53.414Z,4.50
2019-05-16T01:58:53.403Z,4.40
2019-05-16T01:59:53.413Z,4.40
2019-05-16T02:01:06.169Z,4.60
2019-05-16T02:01:54.372Z,5.00
2019-05-16T02:02:53.373Z,4.90
2019-05-16T02:03:53.355Z,5.00
2019-05-16T02:04:53.384Z,4.60
2019-05-16T02:05:53.332Z,4.70
2019-05-16T02:06:54.927Z,4.90
2019-05-16T02:07:53.311Z,4.60
2019-05-16T02:08:53.339Z,5.00
2019-05-16T02:09:53.291Z,4.90
2019-05-16T02:10:53.270Z,4.60
2019-05-16T02:11:53.269Z,5.10
2019-05-16T02:12:53.249Z,4.50
2019-05-16T02:13:53.239Z,4.50
2019-05-16T02:14:53.271Z,4.80
2019-05-16T02:15:53.228Z,4.70
2019-05-16T02:16:53.207Z,4.60
2019-05-16T02:17:53.197Z,4.50
2019-05-16T02:18:53.203Z,4.60
2019-05-16T02:19:53.177Z,4.50
2019-05-16T02:20:53.210Z,4.80
2019-05-16T02:21:53.187Z,4.40
2019-05-16T02:22:53.146Z,4.10
2019-05-16T02:23:53.183Z,3.90
2019-05-16T02:24:53.155Z,4.10
2019-05-16T02:25:53.114Z,3.90
2019-05-16T02:26:53.109Z,4.20
2019-05-16T02:27:53.102Z,4.30
2019-05-16T02:28:53.085Z,4.60
2019-05-16T02:29:53.125Z,4.50
2019-05-16T02:30:53.080Z,4.20
2019-05-16T02:31:53.052Z,4.20
2019-05-16T02:32:53.032Z,4.50
2019-05-16T02:33:53.039Z,5.10
2019-05-16T02:34:53.030Z,4.30
2019-05-16T02:35:55.625Z,4.00
2019-05-16T02:37:14.738Z,3.90
2019-05-16T02:37:55.365Z,5.50
2019-05-16T02:38:55.634Z,5.10
2019-05-16T02:39:54.606Z,4.30
2019-05-16T02:40:55.019Z,4.10
2019-05-16T02:41:52.952Z,3.80
2019-05-16T02:42:55.948Z,3.70
2019-05-16T02:43:52.919Z,3.20
2019-05-16T02:44:52.914Z,3.30
2019-05-16T02:45:52.952Z,3.10
2019-05-16T02:46:52.889Z,3.20
2019-05-16T02:47:52.921Z,2.90
2019-05-16T02:48:52.868Z,3.20
2019-05-16T02:49:52.857Z,2.60
2019-05-16T02:50:52.866Z,2.70
2019-05-16T02:51:52.876Z,2.30
2019-05-16T02:52:52.824Z,2.40
2019-05-16T02:53:52.818Z,2.10
2019-05-16T02:54:52.806Z,2.00
2019-05-16T02:55:52.785Z,2.20
2019-05-16T02:56:52.786Z,2.30
2019-05-16T02:57:52.804Z,2.40
2019-05-16T02:58:52.788Z,2.60
2019-05-16T02:59:52.753Z,2.70
2019-05-16T03:00:52.754Z,2.70
2019-05-16T03:01:52.722Z,2.60
2019-05-16T03:02:52.760Z,2.30
2019-05-16T03:03:52.714Z,2.00
2019-05-16T03:04:52.694Z,2.00
2019-05-16T03:05:52.681Z,2.30
2019-05-16T03:06:53.373Z,2.30
2019-05-16T03:07:52.703Z,2.10
2019-05-16T03:08:52.651Z,2.20
2019-05-16T03:09:52.701Z,2.20
2019-05-16T03:10:52.630Z,1.90
2019-05-16T03:11:52.621Z,1.90
2019-05-16T03:12:52.600Z,2.10
2019-05-16T03:13:52.632Z,1.90
2019-05-16T03:14:54.469Z,1.90
2019-05-16T03:15:52.569Z,2.10
2019-05-16T03:16:52.583Z,2.00
2019-05-16T03:17:52.597Z,2.00
2019-05-16T03:18:52.557Z,2.00
2019-05-16T03:19:52.530Z,1.80
2019-05-16T03:20:52.527Z,1.90
2019-05-16T03:21:52.511Z,1.90
2019-05-16T03:22:52.505Z,1.70
2019-05-16T03:23:52.528Z,1.90
2019-05-16T03:24:52.484Z,1.90
2019-05-16T03:25:52.474Z,2.00
2019-05-16T03:26:52.454Z,1.80
2019-05-16T03:27:52.470Z,2.10
2019-05-16T03:28:52.521Z,1.90
2019-05-16T03:29:52.487Z,2.20
2019-05-16T03:30:54.727Z,1.90
2019-05-16T03:31:54.398Z,1.80
2019-05-16T03:32:54.897Z,2.00
2019-05-16T03:33:59.329Z,1.80
2019-05-16T03:34:55.124Z,1.90
2019-05-16T03:35:54.300Z,1.90
2019-05-16T03:36:54.358Z,1.80
2019-05-16T03:37:59.721Z,1.90
2019-05-16T03:38:53.336Z,2.00
2019-05-16T03:39:52.321Z,2.00
2019-05-16T03:40:52.351Z,2.10
2019-05-16T03:41:52.349Z,2.00
2019-05-16T03:42:52.290Z,2.00
2019-05-16T03:43:52.272Z,2.10
2019-05-16T03:44:52.272Z,2.10
2019-05-16T03:45:52.514Z,2.00
2019-05-16T03:46:52.282Z,2.00
2019-05-16T03:47:52.239Z,2.00
2019-05-16T03:48:52.337Z,1.90
2019-05-16T03:49:52.208Z,2.00
2019-05-16T03:50:52.216Z,2.00
2019-05-16T03:51:52.229Z,2.20
2019-05-16T03:52:52.207Z,2.10
2019-05-16T03:53:52.197Z,2.20
2019-05-16T03:54:52.157Z,2.30
2019-05-16T03:55:52.156Z,2.20
2019-05-16T03:56:52.142Z,2.10
2019-05-16T03:57:52.155Z,2.10
2019-05-16T03:58:52.107Z,2.00
2019-05-16T03:59:52.098Z,2.00
2019-05-16T04:00:54.008Z,2.10
2019-05-16T04:01:52.096Z,2.00
2019-05-16T04:02:52.432Z,2.20
2019-05-16T04:03:52.101Z,2.00
2019-05-16T04:04:52.050Z,2.30
2019-05-16T04:05:52.908Z,2.10
2019-05-16T04:06:52.094Z,1.90
2019-05-16T04:08:08.846Z,2.00
2019-05-16T04:08:53.020Z,2.10
2019-05-16T04:09:52.073Z,2.20
2019-05-16T04:10:52.621Z,2.30
2019-05-16T04:11:51.969Z,2.10
2019-05-16T04:12:51.998Z,2.00
2019-05-16T04:13:51.940Z,2.10
2019-05-16T04:14:51.939Z,2.20
2019-05-16T04:15:52.934Z,2.00
2019-05-16T04:16:51.958Z,2.10
2019-05-16T04:17:51.918Z,2.10
2019-05-16T04:18:51.897Z,2.40
2019-05-16T04:19:51.907Z,2.20
2019-05-16T04:20:52.838Z,2.30
2019-05-16T04:21:51.906Z,2.30
2019-05-16T04:22:51.855Z,2.20
2019-05-16T04:23:51.838Z,2.10
2019-05-16T04:24:51.829Z,2.00
2019-05-16T04:25:52.849Z,2.10
2019-05-16T04:26:52.118Z,2.10
2019-05-16T04:27:51.846Z,2.10
2019-05-16T04:28:51.924Z,2.20
2019-05-16T04:29:51.785Z,2.40
2019-05-16T04:30:51.779Z,2.30
2019-05-16T04:31:51.797Z,2.10
2019-05-16T04:32:51.767Z,2.20
2019-05-16T04:33:52.065Z,2.20
2019-05-16T04:34:51.790Z,2.20
2019-05-16T04:35:52.988Z,2.40
2019-05-16T04:36:51.839Z,2.20
2019-05-16T04:37:51.691Z,2.20
2019-05-16T04:38:51.739Z,2.40
2019-05-16T04:39:51.708Z,2.30
2019-05-16T04:40:51.945Z,2.40
2019-05-16T04:41:51.658Z,2.50
2019-05-16T04:42:51.685Z,2.20
2019-05-16T04:43:51.629Z,2.30
2019-05-16T04:44:51.839Z,2.20
2019-05-16T04:45:52.409Z,2.30
2019-05-16T04:46:51.602Z,2.20
2019-05-16T04:47:51.586Z,2.30
2019-05-16T04:48:51.623Z,2.10
2019-05-16T04:49:52.127Z,2.00
2019-05-16T04:50:52.146Z,1.90
2019-05-16T04:51:51.932Z,2.30
2019-05-16T04:52:51.996Z,2.30
2019-05-16T04:53:51.521Z,1.90
2019-05-16T04:54:51.585Z,2.10
2019-05-16T04:55:52.324Z,2.00
2019-05-16T04:56:51.705Z,1.90
2019-05-16T04:57:51.506Z,1.80
2019-05-16T04:58:51.782Z,2.00
2019-05-16T04:59:51.445Z,2.10
2019-05-16T05:00:52.154Z,1.90
2019-05-16T05:01:51.507Z,2.10
2019-05-16T05:02:52.039Z,2.00
2019-05-16T05:04:06.611Z,2.20
2019-05-16T05:04:52.430Z,2.20
2019-05-16T05:05:52.001Z,2.60
2019-05-16T05:06:51.914Z,2.70
2019-05-16T05:07:51.360Z,2.80
2019-05-16T05:08:58.474Z,2.40
2019-05-16T05:09:52.344Z,2.50
2019-05-16T05:10:52.092Z,2.30
2019-05-16T05:11:51.940Z,2.20
2019-05-16T05:12:51.748Z,2.40
2019-05-16T05:13:51.301Z,2.30
2019-05-16T05:14:51.306Z,2.10
2019-05-16T05:15:51.372Z,2.00
2019-05-16T05:16:51.310Z,2.00
2019-05-16T05:17:51.258Z,2.10
2019-05-16T05:18:51.680Z,2.20
2019-05-16T05:19:51.274Z,2.40
2019-05-16T05:20:52.901Z,2.70
2019-05-16T05:21:51.606Z,2.40
2019-05-16T05:22:51.206Z,2.30
2019-05-16T05:23:51.193Z,2.30
2019-05-16T05:24:51.175Z,2.40
2019-05-16T05:25:51.710Z,2.10
2019-05-16T05:26:51.153Z,2.10
2019-05-16T05:27:51.148Z,1.90
2019-05-16T05:28:51.134Z,2.00
2019-05-16T05:29:51.123Z,1.90
2019-05-16T05:30:51.112Z,2.10
2019-05-16T05:31:55.131Z,2.00
2019-05-16T05:32:51.082Z,2.00
2019-05-16T05:33:51.080Z,1.80
2019-05-16T05:34:51.072Z,1.80
2019-05-16T05:35:51.268Z,1.70
2019-05-16T05:36:51.344Z,1.60
2019-05-16T05:37:51.070Z,1.80
2019-05-16T05:39:00.246Z,1.80
2019-05-16T05:39:52.010Z,1.70
2019-05-16T05:40:51.561Z,2.00
2019-05-16T05:41:51.029Z,1.90
2019-05-16T05:42:50.981Z,1.70
2019-05-16T05:43:51.018Z,2.20
2019-05-16T05:44:50.970Z,2.00
2019-05-16T05:45:51.595Z,2.10
2019-05-16T05:46:51.279Z,2.20
2019-05-16T05:47:50.966Z,2.20
2019-05-16T05:48:50.935Z,2.30
2019-05-16T05:49:50.898Z,2.10
2019-05-16T05:50:51.083Z,2.10
2019-05-16T05:51:50.884Z,1.90
2019-05-16T05:52:51.309Z,1.70
2019-05-16T05:53:51.101Z,1.80
2019-05-16T05:54:50.846Z,1.80
2019-05-16T05:55:51.683Z,1.70
2019-05-16T05:56:50.865Z,2.00
2019-05-16T05:57:50.974Z,1.90
2019-05-16T05:58:51.316Z,1.90
2019-05-16T05:59:50.794Z,1.60
2019-05-16T06:00:52.541Z,1.70
2019-05-16T06:01:51.713Z,1.70
2019-05-16T06:02:50.957Z,1.80
2019-05-16T06:03:50.752Z,1.70
2019-05-16T06:04:50.732Z,1.80
2019-05-16T06:05:50.813Z,1.90
2019-05-16T06:06:50.730Z,1.60
2019-05-16T06:07:51.070Z,1.70
2019-05-16T06:08:50.732Z,1.70
2019-05-16T06:09:56.287Z,1.80
2019-05-16T06:10:51.708Z,1.70
2019-05-16T06:11:50.685Z,1.70
2019-05-16T06:12:50.661Z,1.70
2019-05-16T06:13:50.641Z,1.70
2019-05-16T06:14:50.692Z,1.80
2019-05-16T06:15:51.287Z,1.60
2019-05-16T06:16:50.940Z,1.70
2019-05-16T06:17:51.021Z,1.70
2019-05-16T06:18:50.609Z,1.70
2019-05-16T06:19:50.569Z,1.70
2019-05-16T06:20:51.657Z,1.60
2019-05-16T06:21:50.557Z,1.80
2019-05-16T06:22:51.070Z,1.50
2019-05-16T06:23:51.043Z,1.50
2019-05-16T06:24:50.701Z,1.60
2019-05-16T06:25:51.071Z,1.70
2019-05-16T06:26:50.645Z,1.90
2019-05-16T06:27:51.167Z,1.70
2019-05-16T06:28:50.664Z,1.60
2019-05-16T06:29:50.466Z,1.80
2019-05-16T06:30:51.586Z,1.60
2019-05-16T06:31:50.443Z,1.60
2019-05-16T06:32:50.445Z,1.60
2019-05-16T06:33:50.429Z,1.80
2019-05-16T06:34:50.862Z,1.80
2019-05-16T06:35:51.414Z,1.90
2019-05-16T06:36:50.858Z,1.90
2019-05-16T06:37:50.383Z,2.20
2019-05-16T06:38:50.381Z,1.80
2019-05-16T06:39:50.392Z,1.80
2019-05-16T06:40:52.631Z,1.70
2019-05-16T06:41:50.923Z,1.90
2019-05-16T06:42:50.930Z,2.00
2019-05-16T06:43:50.853Z,2.00
2019-05-16T06:44:50.505Z,1.80
2019-05-16T06:45:51.346Z,1.70
2019-05-16T06:47:00.175Z,1.80
2019-05-16T06:47:51.272Z,1.70
2019-05-16T06:48:50.707Z,1.80
2019-05-16T06:49:50.970Z,1.70
2019-05-16T06:50:51.392Z,1.60
2019-05-16T06:51:51.539Z,1.80
2019-05-16T06:52:50.372Z,1.90
2019-05-16T06:53:50.278Z,1.70
2019-05-16T06:54:53.403Z,1.90
2019-05-16T06:55:50.243Z,1.80
2019-05-16T06:56:50.994Z,1.80
2019-05-16T06:57:50.448Z,1.80
2019-05-16T06:58:52.068Z,1.80
2019-05-16T06:59:50.137Z,1.90
2019-05-16T07:00:52.177Z,2.10
2019-05-16T07:01:50.185Z,1.70
2019-05-16T07:02:50.340Z,1.80
2019-05-16T07:03:50.824Z,1.70
2019-05-16T07:04:50.659Z,1.80
2019-05-16T07:05:50.481Z,1.80
2019-05-16T07:06:58.532Z,1.70
2019-05-16T07:07:51.120Z,1.70
2019-05-16T07:08:50.697Z,1.70
2019-05-16T07:09:59.998Z,1.90
2019-05-16T07:10:51.186Z,1.90
2019-05-16T07:11:50.452Z,1.80
2019-05-16T07:12:50.533Z,2.00
2019-05-16T07:13:51.968Z,2.00
2019-05-16T07:14:50.505Z,1.70
2019-05-16T07:15:50.406Z,1.50
2019-05-16T07:16:49.942Z,2.20
2019-05-16T07:17:50.681Z,1.80
2019-05-16T07:18:50.666Z,1.80
2019-05-16T07:19:50.373Z,1.70
2019-05-16T07:20:51.099Z,1.80
2019-05-16T07:21:50.819Z,1.60
2019-05-16T07:22:50.394Z,1.80
2019-05-16T07:23:51.124Z,1.80
2019-05-16T07:24:50.492Z,1.80
2019-05-16T07:25:50.456Z,5.50
2019-05-16T07:26:50.245Z,1.70
2019-05-16T07:27:51.003Z,1.40
2019-05-16T07:28:51.561Z,1.80
2019-05-16T07:29:50.853Z,1.80
2019-05-16T07:30:50.176Z,2.10
2019-05-16T07:31:52.248Z,1.90
2019-05-16T07:32:50.135Z,1.90
2019-05-16T07:33:50.208Z,1.60
2019-05-16T07:34:49.987Z,1.80
2019-05-16T07:35:51.302Z,1.70
2019-05-16T07:36:50.301Z,1.90
2019-05-16T07:37:50.117Z,1.50
2019-05-16T07:38:50.768Z,1.80
2019-05-16T07:39:51.122Z,1.70
2019-05-16T07:40:51.113Z,1.70
2019-05-16T07:41:50.803Z,1.90
2019-05-16T07:42:51.013Z,1.70
2019-05-16T07:43:50.604Z,1.70
2019-05-16T07:44:50.574Z,1.70
2019-05-16T07:45:51.497Z,1.50
2019-05-16T07:46:51.551Z,2.00
2019-05-16T07:47:50.965Z,1.80
2019-05-16T07:48:51.711Z,1.80
2019-05-16T07:49:50.137Z,1.90
2019-05-16T07:50:50.039Z,1.80
2019-05-16T07:51:49.910Z,1.80
2019-05-16T07:52:51.174Z,1.70
2019-05-16T07:53:50.494Z,1.60
2019-05-16T07:54:50.716Z,1.90
2019-05-16T07:55:51.007Z,1.90
2019-05-16T07:56:57.195Z,1.90
2019-05-16T07:57:50.748Z,1.60
2019-05-16T07:58:50.761Z,1.60
2019-05-16T07:59:50.689Z,1.60
2019-05-16T08:00:57.835Z,1.60
2019-05-16T08:01:53.642Z,1.70
2019-05-16T08:02:50.604Z,1.50
2019-05-16T08:03:50.951Z,1.70
2019-05-16T08:04:50.213Z,1.60
2019-05-16T08:05:51.520Z,1.60
2019-05-16T08:06:50.286Z,1.70
2019-05-16T08:07:51.137Z,1.70
2019-05-16T08:08:51.044Z,1.60
2019-05-16T08:09:50.465Z,1.50
2019-05-16T08:10:50.737Z,1.50
2019-05-16T08:11:50.178Z,1.60
2019-05-16T08:12:51.321Z,1.60
2019-05-16T08:13:50.791Z,1.50
2019-05-16T08:14:50.186Z,1.50
2019-05-16T08:15:50.380Z,1.40
2019-05-16T08:16:50.152Z,1.40
2019-05-16T08:17:51.141Z,1.30
2019-05-16T08:18:50.653Z,1.30
2019-05-16T08:19:50.641Z,1.40
2019-05-16T08:20:52.247Z,1.20
2019-05-16T08:21:50.504Z,1.30
2019-05-16T08:22:50.727Z,1.30
2019-05-16T08:23:50.436Z,1.30
2019-05-16T08:24:50.546Z,1.40
2019-05-16T08:25:50.744Z,1.50
2019-05-16T08:26:51.372Z,1.30
2019-05-16T08:27:52.274Z,2.10
2019-05-16T08:28:51.284Z,3.20
2019-05-16T08:29:51.373Z,1.40
2019-05-16T08:30:52.842Z,1.40
2019-05-16T08:31:52.721Z,1.40
2019-05-16T08:32:52.882Z,1.40
2019-05-16T08:34:51.392Z,1.60
2019-05-16T08:35:51.516Z,1.40
2019-05-16T08:36:51.935Z,1.50
2019-05-16T08:37:51.456Z,2.80
2019-05-16T08:38:51.565Z,1.30
2019-05-16T08:39:50.944Z,2.20
2019-05-16T08:41:51.895Z,3.40
2019-05-16T08:42:51.654Z,3.20
2019-05-16T08:43:52.597Z,1.50
2019-05-16T08:44:51.754Z,1.40
2019-05-16T08:45:51.488Z,1.40
2019-05-16T08:46:54.704Z,1.50
2019-05-16T08:47:52.765Z,1.60
2019-05-16T08:48:53.328Z,1.80
2019-05-16T08:49:52.202Z,1.40
2019-05-16T08:50:12.047Z,1.70
2019-05-16T08:50:53.863Z,1.50
2019-05-16T08:51:52.818Z,4.40
2019-05-16T08:52:52.906Z,1.80
2019-05-16T08:53:50.514Z,1.40
2019-05-16T08:54:51.072Z,1.40
2019-05-16T08:55:50.509Z,1.40
2019-05-16T08:56:51.071Z,1.50
2019-05-16T08:57:52.917Z,1.40
2019-05-16T08:58:54.072Z,2.10
2019-05-16T08:59:52.408Z,1.50
2019-05-16T09:00:54.635Z,1.50
2019-05-16T09:01:56.724Z,1.70
2019-05-16T09:03:52.032Z,1.30
2019-05-16T09:04:53.081Z,1.30
2019-05-16T09:05:52.993Z,1.40
2019-05-16T09:06:52.425Z,1.20
2019-05-16T09:07:49.659Z,1.30
2019-05-16T09:08:48.768Z,1.20
2019-05-16T09:09:51.593Z,1.40
2019-05-16T09:10:25.133Z,1.40
2019-05-16T09:10:59.786Z,1.30
2019-05-16T09:11:49.688Z,1.40
2019-05-16T09:12:48.679Z,1.10
2019-05-16T09:13:48.658Z,1.40
2019-05-16T09:14:48.694Z,1.50
2019-05-16T09:15:48.838Z,1.20
2019-05-16T09:16:48.625Z,1.30
2019-05-16T09:17:48.627Z,1.20
2019-05-16T09:18:30.424Z,1.80
2019-05-16T09:18:50.977Z,1.30
2019-05-16T09:19:48.595Z,1.20
2019-05-16T09:20:50.289Z,1.30
2019-05-16T09:21:48.581Z,1.20
2019-05-16T09:22:48.585Z,8.30
2019-05-16T09:23:48.594Z,6.70
2019-05-16T09:24:48.552Z,26.30
2019-05-16T09:25:49.250Z,7.00
2019-05-16T09:26:48.523Z,3.00
2019-05-16T09:27:48.513Z,14.70
2019-05-16T09:28:48.669Z,4.40
2019-05-16T09:29:48.523Z,1.40
2019-05-16T09:30:48.477Z,1.30
2019-05-16T09:32:07.392Z,2.60
2019-05-16T09:32:49.486Z,7.30
2019-05-16T09:33:48.450Z,4.20
2019-05-16T09:34:48.454Z,8.40
2019-05-16T09:35:48.460Z,1.80
2019-05-16T09:36:48.410Z,2.00
2019-05-16T09:37:48.401Z,3.80
2019-05-16T09:38:48.863Z,10.50
2019-05-16T09:39:48.419Z,1.80
2019-05-16T09:40:48.406Z,7.00
2019-05-16T09:41:54.572Z,1.60
2019-05-16T09:42:49.344Z,1.10
2019-05-16T09:43:48.970Z,1.20
2019-05-16T09:44:48.448Z,1.10
2019-05-16T09:45:48.352Z,1.20
2019-05-16T09:46:48.318Z,1.10
2019-05-16T09:47:48.727Z,1.20
2019-05-16T09:48:48.289Z,1.10
2019-05-16T09:49:48.283Z,1.10
2019-05-16T09:50:48.309Z,1.10
2019-05-16T09:51:48.288Z,1.40
2019-05-16T09:52:48.234Z,2.40
2019-05-16T09:53:48.218Z,1.30
2019-05-16T09:54:48.208Z,1.80
2019-05-16T09:55:48.199Z,6.40
2019-05-16T09:56:48.194Z,2.30
2019-05-16T09:57:48.217Z,1.10
2019-05-16T09:58:48.207Z,3.10
2019-05-16T09:59:48.158Z,1.60
2019-05-16T10:00:48.160Z,1.20
2019-05-16T10:01:48.149Z,1.10
2019-05-16T10:02:48.133Z,2.00
2019-05-16T10:03:48.153Z,1.40
2019-05-16T10:04:48.107Z,1.30
2019-05-16T10:05:48.088Z,1.00
2019-05-16T10:06:48.084Z,1.00
2019-05-16T10:07:48.078Z,1.10
2019-05-16T10:08:48.064Z,1.10
2019-05-16T10:09:50.332Z,1.10
2019-05-16T10:10:48.042Z,1.00
2019-05-16T10:11:49.449Z,1.00
2019-05-16T10:12:49.014Z,1.00
2019-05-16T10:13:48.020Z,1.00
2019-05-16T10:14:47.994Z,0.90
2019-05-16T10:15:48.063Z,1.10
2019-05-16T10:16:48.030Z,0.80
2019-05-16T10:17:47.969Z,1.00
2019-05-16T10:18:48.022Z,0.90
2019-05-16T10:19:47.944Z,0.90
2019-05-16T10:20:47.924Z,0.90
2019-05-16T10:21:47.952Z,0.80
2019-05-16T10:22:50.555Z,0.80
2019-05-16T10:23:47.899Z,0.80
2019-05-16T10:24:47.898Z,0.70
2019-05-16T10:25:48.281Z,0.80
2019-05-16T10:26:53.532Z,0.80
2019-05-16T10:27:48.862Z,0.80
2019-05-16T10:28:47.839Z,0.80
2019-05-16T10:29:48.629Z,0.80
2019-05-16T10:30:50.167Z,0.80
2019-05-16T10:31:52.586Z,0.60
2019-05-16T10:32:48.820Z,0.80
2019-05-16T10:33:47.991Z,0.60
2019-05-16T10:34:47.771Z,0.90
2019-05-16T10:35:48.726Z,0.60
2019-05-16T10:36:59.898Z,0.60
2019-05-16T10:38:28.264Z,0.80
2019-05-16T10:40:18.296Z,0.60
2019-05-16T10:43:58.012Z,0.90
2019-05-16T10:46:18.364Z,0.70
2019-05-16T10:47:22.005Z,0.70
2019-05-16T10:49:37.317Z,0.80
2019-05-16T10:50:31.388Z,0.80
2019-05-16T10:51:28.978Z,0.70
2019-05-16T10:52:28.182Z,0.70
2019-05-16T10:53:57.584Z,0.70
2019-05-16T10:54:29.242Z,0.70
2019-05-16T10:55:28.167Z,0.60
2019-05-16T10:56:28.133Z,0.80
2019-05-16T10:57:29.934Z,0.70
2019-05-16T10:58:36.617Z,0.70
2019-05-16T11:00:58.077Z,0.60
2019-05-16T11:01:31.369Z,0.80
2019-05-16T11:02:28.096Z,0.60
2019-05-16T11:03:28.269Z,0.60
2019-05-16T11:04:37.582Z,0.70
2019-05-16T11:05:33.653Z,0.70
2019-05-16T11:06:29.565Z,0.60
2019-05-16T11:07:29.828Z,0.80
2019-05-16T11:08:27.999Z,0.70
2019-05-16T11:09:27.998Z,0.50
2019-05-16T11:10:29.786Z,0.70
2019-05-16T11:11:28.011Z,0.60
2019-05-16T11:12:45.350Z,0.70
2019-05-16T11:13:28.969Z,0.60
2019-05-16T11:14:28.280Z,0.70
2019-05-16T11:15:28.017Z,0.70
2019-05-16T11:16:27.929Z,0.60
2019-05-16T11:17:28.004Z,0.70
2019-05-16T11:18:27.899Z,0.70
2019-05-16T11:19:28.368Z,0.70
2019-05-16T11:20:29.182Z,0.70
2019-05-16T11:21:29.647Z,0.80
2019-05-16T11:22:30.039Z,0.70
2019-05-16T11:23:36.743Z,0.70
2019-05-16T11:24:29.354Z,0.60
2019-05-16T11:25:31.822Z,0.80
2019-05-16T11:26:30.229Z,0.70
2019-05-16T11:27:27.795Z,0.60
2019-05-16T11:28:27.792Z,0.70
2019-05-16T11:29:27.777Z,0.70
2019-05-16T11:30:28.163Z,0.70
2019-05-16T11:31:27.757Z,0.70
2019-05-16T11:32:27.781Z,0.70
2019-05-16T11:33:28.335Z,0.70
2019-05-16T11:34:27.714Z,0.80
2019-05-16T11:35:27.724Z,0.80
2019-05-16T11:36:27.741Z,0.60
2019-05-16T11:37:28.037Z,0.70
2019-05-16T11:38:27.749Z,0.60
2019-05-16T11:39:27.824Z,0.80
2019-05-16T11:40:30.097Z,0.70
2019-05-16T11:41:27.785Z,0.70
2019-05-16T11:42:28.073Z,0.80
2019-05-16T11:43:28.281Z,0.80
2019-05-16T11:44:28.707Z,0.70
2019-05-16T11:45:27.601Z,0.70
2019-05-16T11:46:28.270Z,0.70
2019-05-16T11:47:27.572Z,0.80
2019-05-16T11:48:29.457Z,0.70
2019-05-16T11:49:27.725Z,0.80
2019-05-16T11:50:28.066Z,0.80
2019-05-16T11:51:27.531Z,0.80
2019-05-16T11:52:27.540Z,0.80
2019-05-16T11:53:28.330Z,0.90
2019-05-16T11:54:27.530Z,0.70
2019-05-16T11:55:33.519Z,0.70
2019-05-16T11:56:28.508Z,0.90
2019-05-16T11:57:27.457Z,0.80
2019-05-16T11:58:27.505Z,0.90
2019-05-16T11:59:27.430Z,0.70
2019-05-16T12:00:30.477Z,0.70
2019-05-16T12:01:27.751Z,0.70
2019-05-16T12:02:28.111Z,0.80
2019-05-16T12:03:28.138Z,0.70
2019-05-16T12:04:28.058Z,0.60
2019-05-16T12:05:27.375Z,0.80
2019-05-16T12:06:27.694Z,0.80
2019-05-16T12:07:33.287Z,0.70
2019-05-16T12:08:28.375Z,0.80
2019-05-16T12:09:33.281Z,0.80
2019-05-16T12:10:28.310Z,0.80
2019-05-16T12:11:27.986Z,0.90
2019-05-16T12:12:27.368Z,0.70
2019-05-16T12:13:31.866Z,0.70
2019-05-16T12:14:28.265Z,0.80
2019-05-16T12:15:27.511Z,0.70
2019-05-16T12:16:27.674Z,0.70
2019-05-16T12:17:27.972Z,0.80
2019-05-16T12:18:27.315Z,0.60
2019-05-16T12:19:34.029Z,0.90
2019-05-16T12:20:28.199Z,0.70
2019-05-16T12:21:27.566Z,0.70
2019-05-16T12:22:27.178Z,0.80
2019-05-16T12:23:27.742Z,0.80
2019-05-16T12:24:36.418Z,0.80
2019-05-16T12:25:28.167Z,0.70
2019-05-16T12:26:28.156Z,0.70
2019-05-16T12:27:32.511Z,0.80
2019-05-16T12:28:28.156Z,0.60
2019-05-16T12:29:28.173Z,0.70
2019-05-16T12:30:27.085Z,0.80
2019-05-16T12:31:27.772Z,0.80
2019-05-16T12:32:27.636Z,0.70
2019-05-16T12:33:27.581Z,0.80
2019-05-16T12:34:27.084Z,0.80
2019-05-16T12:35:27.716Z,0.60
2019-05-16T12:36:27.068Z,0.70
2019-05-16T12:37:27.554Z,0.80
2019-05-16T12:38:27.811Z,0.80
2019-05-16T12:39:26.993Z,0.80
2019-05-16T12:40:27.075Z,0.70
2019-05-16T12:41:28.743Z,0.80
2019-05-16T12:42:27.159Z,0.70
2019-05-16T12:43:43.740Z,0.80
2019-05-16T12:44:27.934Z,0.70
2019-05-16T12:45:27.533Z,1.00
2019-05-16T12:46:27.301Z,0.80
2019-05-16T12:47:26.893Z,0.70
2019-05-16T12:48:26.882Z,0.90
2019-05-16T12:49:26.875Z,0.80
2019-05-16T12:50:28.609Z,0.80
2019-05-16T12:51:26.862Z,0.70
2019-05-16T12:52:27.208Z,0.80
2019-05-16T12:53:31.775Z,0.70
2019-05-16T12:54:27.891Z,0.90
2019-05-16T12:55:27.272Z,0.80
2019-05-16T12:56:27.367Z,0.70
2019-05-16T12:57:31.060Z,0.80
2019-05-16T12:58:37.521Z,0.70
2019-05-16T12:59:29.046Z,0.70
2019-05-16T13:00:27.608Z,0.80
2019-05-16T13:01:34.097Z,0.70
2019-05-16T13:02:29.106Z,0.70
2019-05-16T13:03:28.803Z,0.80
2019-05-16T13:04:28.002Z,0.70
2019-05-16T13:05:27.418Z,0.80
2019-05-16T13:06:27.782Z,0.90
2019-05-16T13:07:27.034Z,0.80
2019-05-16T13:08:27.424Z,0.70
2019-05-16T13:09:27.772Z,0.90
2019-05-16T13:10:27.111Z,0.80
2019-05-16T13:11:29.271Z,0.80
2019-05-16T13:12:27.931Z,0.80
2019-05-16T13:13:28.236Z,0.80
2019-05-16T13:14:27.980Z,0.80
2019-05-16T13:15:27.304Z,0.70
2019-05-16T13:16:28.224Z,1.00
2019-05-16T13:17:27.448Z,0.80
2019-05-16T13:18:27.509Z,0.90
2019-05-16T13:19:32.775Z,0.80
2019-05-16T13:20:27.829Z,0.90
2019-05-16T13:21:27.605Z,0.90
2019-05-16T13:22:27.518Z,0.70
2019-05-16T13:23:27.065Z,0.80
2019-05-16T13:24:28.245Z,0.80
2019-05-16T13:25:28.948Z,0.90
2019-05-16T13:26:27.041Z,1.00